sensor_id;sensor_type;location;lat;lon;timestamp;P1;durP1;ratioP1;P2;durP2;ratioP2
9559;SDS011;4818;50.860;4.648;2022-12-15T00:00:04;53.95;;;24.85;;
9559;SDS011;4818;50.860;4.648;2022-12-15T00:02:49;60.85;;;26.13;;
9559;SDS011;4818;50.860;4.648;2022-12-15T00:05:34;59.50;;;26.50;;
9559;SDS011;4818;50.860;4.648;2022-12-15T00:08:19;54.67;;;26.60;;
9559;SDS011;4818;50.860;4.648;2022-12-15T00:11:03;57.35;;;26.35;;
9559;SDS011;4818;50.860;4.648;2022-12-15T00:13:48;56.17;;;26.48;;
9559;SDS011;4818;50.860;4.648;2022-12-15T00:16:34;60.17;;;27.40;;
9559;SDS011;4818;50.860;4.648;2022-12-15T00:19:19;64.20;;;27.55;;
9559;SDS011;4818;50.860;4.648;2022-12-15T00:22:05;72.25;;;29.50;;
9559;SDS011;4818;50.860;4.648;2022-12-15T00:24:49;64.30;;;29.42;;
9559;SDS011;4818;50.860;4.648;2022-12-15T00:27:34;61.78;;;28.55;;
9559;SDS011;4818;50.860;4.648;2022-12-15T00:30:19;69.78;;;27.52;;
9559;SDS011;4818;50.860;4.648;2022-12-15T00:33:07;54.13;;;25.80;;
9559;SDS011;4818;50.860;4.648;2022-12-15T00:35:53;52.78;;;25.42;;
9559;SDS011;4818;50.860;4.648;2022-12-15T00:38:39;55.05;;;24.20;;
9559;SDS011;4818;50.860;4.648;2022-12-15T00:41:09;58.70;;;25.15;;
9559;SDS011;4818;50.860;4.648;2022-12-15T00:43:36;62.47;;;26.85;;
9559;SDS011;4818;50.860;4.648;2022-12-15T00:46:02;61.45;;;27.05;;
9559;SDS011;4818;50.860;4.648;2022-12-15T00:48:47;50.75;;;23.77;;
9559;SDS011;4818;50.860;4.648;2022-12-15T00:51:14;51.40;;;25.00;;
9559;SDS011;4818;50.860;4.648;2022-12-15T00:53:41;56.80;;;26.92;;
9559;SDS011;4818;50.860;4.648;2022-12-15T00:56:26;56.08;;;25.13;;
9559;SDS011;4818;50.860;4.648;2022-12-15T00:59:11;65.40;;;27.58;;
9559;SDS011;4818;50.860;4.648;2022-12-15T01:01:56;64.75;;;26.75;;
9559;SDS011;4818;50.860;4.648;2022-12-15T01:04:41;59.05;;;26.75;;
9559;SDS011;4818;50.860;4.648;2022-12-15T01:07:26;53.22;;;24.65;;
9559;SDS011;4818;50.860;4.648;2022-12-15T01:10:11;56.47;;;25.25;;
9559;SDS011;4818;50.860;4.648;2022-12-15T01:12:56;51.75;;;24.75;;
9559;SDS011;4818;50.860;4.648;2022-12-15T01:15:42;50.85;;;24.58;;
9559;SDS011;4818;50.860;4.648;2022-12-15T01:18:26;58.08;;;24.95;;
9559;SDS011;4818;50.860;4.648;2022-12-15T01:21:11;52.95;;;24.63;;
9559;SDS011;4818;50.860;4.648;2022-12-15T01:23:39;58.20;;;23.50;;
9559;SDS011;4818;50.860;4.648;2022-12-15T01:26:06;59.05;;;25.17;;
9559;SDS011;4818;50.860;4.648;2022-12-15T01:28:32;53.60;;;24.52;;
9559;SDS011;4818;50.860;4.648;2022-12-15T01:30:58;55.08;;;23.30;;
9559;SDS011;4818;50.860;4.648;2022-12-15T01:33:24;51.67;;;24.75;;
9559;SDS011;4818;50.860;4.648;2022-12-15T01:36:09;60.85;;;26.15;;
9559;SDS011;4818;50.860;4.648;2022-12-15T01:38:35;57.58;;;23.60;;
9559;SDS011;4818;50.860;4.648;2022-12-15T01:41:02;66.10;;;28.15;;
9559;SDS011;4818;50.860;4.648;2022-12-15T01:43:30;64.80;;;26.02;;
9559;SDS011;4818;50.860;4.648;2022-12-15T01:45:59;62.87;;;27.33;;
9559;SDS011;4818;50.860;4.648;2022-12-15T01:48:33;58.10;;;25.92;;
9559;SDS011;4818;50.860;4.648;2022-12-15T01:51:36;59.20;;;25.80;;
9559;SDS011;4818;50.860;4.648;2022-12-15T01:53:56;59.35;;;27.70;;
9559;SDS011;4818;50.860;4.648;2022-12-15T01:56:24;58.08;;;26.15;;
9559;SDS011;4818;50.860;4.648;2022-12-15T01:58:51;54.40;;;25.65;;
9559;SDS011;4818;50.860;4.648;2022-12-15T02:01:18;64.15;;;28.13;;
9559;SDS011;4818;50.860;4.648;2022-12-15T02:03:44;61.47;;;25.70;;
9559;SDS011;4818;50.860;4.648;2022-12-15T02:06:12;59.90;;;26.33;;
9559;SDS011;4818;50.860;4.648;2022-12-15T02:08:38;56.92;;;26.67;;
9559;SDS011;4818;50.860;4.648;2022-12-15T02:13:34;65.70;;;27.80;;
9559;SDS011;4818;50.860;4.648;2022-12-15T02:16:08;64.70;;;28.48;;
9559;SDS011;4818;50.860;4.648;2022-12-15T02:18:41;51.15;;;24.83;;
9559;SDS011;4818;50.860;4.648;2022-12-15T02:23:58;70.65;;;29.10;;
9559;SDS011;4818;50.860;4.648;2022-12-15T02:31:58;63.63;;;28.08;;
9559;SDS011;4818;50.860;4.648;2022-12-15T02:34:29;57.58;;;27.17;;
9559;SDS011;4818;50.860;4.648;2022-12-15T02:37:00;61.65;;;27.58;;
9559;SDS011;4818;50.860;4.648;2022-12-15T02:39:30;58.97;;;25.35;;
9559;SDS011;4818;50.860;4.648;2022-12-15T02:41:56;74.97;;;29.05;;
9559;SDS011;4818;50.860;4.648;2022-12-15T02:49:54;56.55;;;25.75;;
9559;SDS011;4818;50.860;4.648;2022-12-15T02:52:38;68.70;;;28.63;;
9559;SDS011;4818;50.860;4.648;2022-12-15T02:55:19;67.88;;;30.58;;
9559;SDS011;4818;50.860;4.648;2022-12-15T02:58:07;70.70;;;32.00;;
9559;SDS011;4818;50.860;4.648;2022-12-15T03:00:39;73.35;;;29.58;;
9559;SDS011;4818;50.860;4.648;2022-12-15T03:03:07;64.43;;;29.55;;
9559;SDS011;4818;50.860;4.648;2022-12-15T03:05:34;65.13;;;29.42;;
9559;SDS011;4818;50.860;4.648;2022-12-15T03:08:00;66.38;;;29.55;;
9559;SDS011;4818;50.860;4.648;2022-12-15T03:10:26;71.63;;;30.83;;
9559;SDS011;4818;50.860;4.648;2022-12-15T03:12:52;64.82;;;28.13;;
9559;SDS011;4818;50.860;4.648;2022-12-15T03:15:18;63.95;;;29.02;;
9559;SDS011;4818;50.860;4.648;2022-12-15T03:17:45;82.95;;;29.10;;
9559;SDS011;4818;50.860;4.648;2022-12-15T03:20:11;71.68;;;29.77;;
9559;SDS011;4818;50.860;4.648;2022-12-15T03:22:37;69.38;;;30.83;;
9559;SDS011;4818;50.860;4.648;2022-12-15T03:25:03;70.95;;;30.48;;
9559;SDS011;4818;50.860;4.648;2022-12-15T03:27:29;63.63;;;28.90;;
9559;SDS011;4818;50.860;4.648;2022-12-15T03:29:56;60.55;;;27.52;;
9559;SDS011;4818;50.860;4.648;2022-12-15T03:32:22;66.82;;;30.15;;
9559;SDS011;4818;50.860;4.648;2022-12-15T03:34:48;60.45;;;28.77;;
9559;SDS011;4818;50.860;4.648;2022-12-15T03:37:14;65.97;;;28.63;;
9559;SDS011;4818;50.860;4.648;2022-12-15T03:39:40;61.33;;;28.77;;
9559;SDS011;4818;50.860;4.648;2022-12-15T03:42:06;64.53;;;29.33;;
9559;SDS011;4818;50.860;4.648;2022-12-15T03:44:32;70.30;;;31.73;;
9559;SDS011;4818;50.860;4.648;2022-12-15T03:46:58;63.10;;;29.83;;
9559;SDS011;4818;50.860;4.648;2022-12-15T03:49:24;68.13;;;29.38;;
9559;SDS011;4818;50.860;4.648;2022-12-15T03:51:50;63.30;;;28.35;;
9559;SDS011;4818;50.860;4.648;2022-12-15T03:54:17;68.80;;;29.40;;
9559;SDS011;4818;50.860;4.648;2022-12-15T03:56:43;68.97;;;28.92;;
9559;SDS011;4818;50.860;4.648;2022-12-15T03:59:10;67.85;;;29.30;;
9559;SDS011;4818;50.860;4.648;2022-12-15T04:01:36;69.40;;;30.63;;
9559;SDS011;4818;50.860;4.648;2022-12-15T04:04:02;72.82;;;29.30;;
9559;SDS011;4818;50.860;4.648;2022-12-15T04:06:29;61.40;;;27.50;;
9559;SDS011;4818;50.860;4.648;2022-12-15T04:08:55;65.72;;;28.88;;
9559;SDS011;4818;50.860;4.648;2022-12-15T04:11:21;70.05;;;30.65;;
9559;SDS011;4818;50.860;4.648;2022-12-15T04:13:47;71.65;;;32.28;;
9559;SDS011;4818;50.860;4.648;2022-12-15T04:16:13;59.88;;;28.85;;
9559;SDS011;4818;50.860;4.648;2022-12-15T04:18:40;64.75;;;29.25;;
9559;SDS011;4818;50.860;4.648;2022-12-15T04:21:06;66.88;;;29.50;;
9559;SDS011;4818;50.860;4.648;2022-12-15T04:23:32;67.13;;;30.73;;
9559;SDS011;4818;50.860;4.648;2022-12-15T04:25:58;69.13;;;30.10;;
9559;SDS011;4818;50.860;4.648;2022-12-15T04:28:43;61.75;;;28.92;;
9559;SDS011;4818;50.860;4.648;2022-12-15T04:31:28;63.35;;;29.65;;
9559;SDS011;4818;50.860;4.648;2022-12-15T04:34:15;62.95;;;28.30;;
9559;SDS011;4818;50.860;4.648;2022-12-15T04:37:01;69.90;;;31.70;;
9559;SDS011;4818;50.860;4.648;2022-12-15T04:39:46;65.53;;;29.00;;
9559;SDS011;4818;50.860;4.648;2022-12-15T04:42:33;64.75;;;28.83;;
9559;SDS011;4818;50.860;4.648;2022-12-15T04:45:19;68.32;;;29.83;;
9559;SDS011;4818;50.860;4.648;2022-12-15T04:48:05;68.85;;;31.13;;
9559;SDS011;4818;50.860;4.648;2022-12-15T04:50:50;64.82;;;29.58;;
9559;SDS011;4818;50.860;4.648;2022-12-15T04:53:35;67.72;;;28.33;;
9559;SDS011;4818;50.860;4.648;2022-12-15T04:56:19;63.60;;;31.23;;
9559;SDS011;4818;50.860;4.648;2022-12-15T04:59:04;68.05;;;27.77;;
9559;SDS011;4818;50.860;4.648;2022-12-15T05:01:49;66.15;;;29.15;;
9559;SDS011;4818;50.860;4.648;2022-12-15T05:04:33;66.97;;;30.38;;
9559;SDS011;4818;50.860;4.648;2022-12-15T05:07:18;73.60;;;29.27;;
9559;SDS011;4818;50.860;4.648;2022-12-15T05:10:04;71.82;;;30.40;;
9559;SDS011;4818;50.860;4.648;2022-12-15T05:12:48;63.13;;;28.45;;
9559;SDS011;4818;50.860;4.648;2022-12-15T05:15:33;61.42;;;28.85;;
9559;SDS011;4818;50.860;4.648;2022-12-15T05:18:19;68.63;;;28.70;;
9559;SDS011;4818;50.860;4.648;2022-12-15T05:21:04;60.75;;;27.42;;
9559;SDS011;4818;50.860;4.648;2022-12-15T05:23:49;73.75;;;28.65;;
9559;SDS011;4818;50.860;4.648;2022-12-15T05:26:34;70.70;;;29.92;;
9559;SDS011;4818;50.860;4.648;2022-12-15T05:29:20;71.30;;;29.40;;
9559;SDS011;4818;50.860;4.648;2022-12-15T05:32:05;62.97;;;27.30;;
9559;SDS011;4818;50.860;4.648;2022-12-15T05:34:32;67.40;;;29.60;;
9559;SDS011;4818;50.860;4.648;2022-12-15T05:36:59;59.38;;;29.02;;
9559;SDS011;4818;50.860;4.648;2022-12-15T05:39:26;65.18;;;29.05;;
9559;SDS011;4818;50.860;4.648;2022-12-15T05:41:52;73.35;;;30.73;;
9559;SDS011;4818;50.860;4.648;2022-12-15T05:44:19;71.10;;;31.60;;
9559;SDS011;4818;50.860;4.648;2022-12-15T05:46:45;82.03;;;31.38;;
9559;SDS011;4818;50.860;4.648;2022-12-15T05:49:12;69.88;;;31.15;;
9559;SDS011;4818;50.860;4.648;2022-12-15T05:51:42;75.50;;;31.33;;
9559;SDS011;4818;50.860;4.648;2022-12-15T05:54:08;72.30;;;30.95;;
9559;SDS011;4818;50.860;4.648;2022-12-15T05:56:35;73.80;;;30.35;;
9559;SDS011;4818;50.860;4.648;2022-12-15T05:59:01;67.93;;;29.48;;
9559;SDS011;4818;50.860;4.648;2022-12-15T06:01:27;59.53;;;28.02;;
9559;SDS011;4818;50.860;4.648;2022-12-15T06:03:55;68.55;;;29.90;;
9559;SDS011;4818;50.860;4.648;2022-12-15T06:06:21;72.93;;;27.65;;
9559;SDS011;4818;50.860;4.648;2022-12-15T06:08:48;65.85;;;30.55;;
9559;SDS011;4818;50.860;4.648;2022-12-15T06:11:14;63.38;;;27.77;;
9559;SDS011;4818;50.860;4.648;2022-12-15T06:13:41;60.30;;;28.40;;
9559;SDS011;4818;50.860;4.648;2022-12-15T06:16:12;62.70;;;28.10;;
9559;SDS011;4818;50.860;4.648;2022-12-15T06:18:40;58.45;;;26.65;;
9559;SDS011;4818;50.860;4.648;2022-12-15T06:21:08;61.50;;;28.17;;
9559;SDS011;4818;50.860;4.648;2022-12-15T06:23:34;64.75;;;29.98;;
9559;SDS011;4818;50.860;4.648;2022-12-15T06:28:46;64.45;;;27.30;;
9559;SDS011;4818;50.860;4.648;2022-12-15T06:31:12;57.13;;;27.13;;
9559;SDS011;4818;50.860;4.648;2022-12-15T06:33:39;66.80;;;28.77;;
9559;SDS011;4818;50.860;4.648;2022-12-15T06:36:09;66.72;;;30.15;;
9559;SDS011;4818;50.860;4.648;2022-12-15T06:38:35;71.03;;;30.30;;
9559;SDS011;4818;50.860;4.648;2022-12-15T06:41:02;68.60;;;29.67;;
9559;SDS011;4818;50.860;4.648;2022-12-15T06:43:30;66.90;;;28.67;;
9559;SDS011;4818;50.860;4.648;2022-12-15T06:45:57;77.30;;;30.15;;
9559;SDS011;4818;50.860;4.648;2022-12-15T06:48:23;62.10;;;28.25;;
9559;SDS011;4818;50.860;4.648;2022-12-15T06:50:50;64.07;;;27.17;;
9559;SDS011;4818;50.860;4.648;2022-12-15T06:53:17;67.43;;;29.73;;
9559;SDS011;4818;50.860;4.648;2022-12-15T06:55:43;77.90;;;30.83;;
9559;SDS011;4818;50.860;4.648;2022-12-15T06:58:10;68.45;;;28.88;;
9559;SDS011;4818;50.860;4.648;2022-12-15T07:00:41;72.60;;;30.30;;
9559;SDS011;4818;50.860;4.648;2022-12-15T07:03:15;67.55;;;28.92;;
9559;SDS011;4818;50.860;4.648;2022-12-15T07:05:44;60.33;;;27.23;;
9559;SDS011;4818;50.860;4.648;2022-12-15T07:08:11;57.92;;;28.77;;
9559;SDS011;4818;50.860;4.648;2022-12-15T07:10:38;61.78;;;27.75;;
9559;SDS011;4818;50.860;4.648;2022-12-15T07:13:04;65.65;;;28.45;;
9559;SDS011;4818;50.860;4.648;2022-12-15T07:15:31;70.80;;;29.15;;
9559;SDS011;4818;50.860;4.648;2022-12-15T07:17:57;69.32;;;29.88;;
9559;SDS011;4818;50.860;4.648;2022-12-15T07:20:23;71.82;;;32.90;;
9559;SDS011;4818;50.860;4.648;2022-12-15T07:22:50;74.43;;;36.72;;
9559;SDS011;4818;50.860;4.648;2022-12-15T07:25:19;79.93;;;33.63;;
9559;SDS011;4818;50.860;4.648;2022-12-15T07:27:45;66.05;;;29.00;;
9559;SDS011;4818;50.860;4.648;2022-12-15T07:30:12;64.80;;;29.23;;
9559;SDS011;4818;50.860;4.648;2022-12-15T07:32:39;69.47;;;31.42;;
9559;SDS011;4818;50.860;4.648;2022-12-15T07:35:05;64.40;;;27.80;;
9559;SDS011;4818;50.860;4.648;2022-12-15T07:37:32;75.53;;;31.58;;
9559;SDS011;4818;50.860;4.648;2022-12-15T07:39:59;70.10;;;28.55;;
9559;SDS011;4818;50.860;4.648;2022-12-15T07:42:28;66.18;;;28.90;;
9559;SDS011;4818;50.860;4.648;2022-12-15T07:44:54;65.82;;;30.15;;
9559;SDS011;4818;50.860;4.648;2022-12-15T07:47:20;61.67;;;27.50;;
9559;SDS011;4818;50.860;4.648;2022-12-15T07:49:46;62.42;;;28.17;;
9559;SDS011;4818;50.860;4.648;2022-12-15T07:52:12;65.88;;;28.38;;
9559;SDS011;4818;50.860;4.648;2022-12-15T07:54:39;62.42;;;29.65;;
9559;SDS011;4818;50.860;4.648;2022-12-15T07:57:05;60.03;;;27.27;;
9559;SDS011;4818;50.860;4.648;2022-12-15T07:59:33;68.07;;;28.48;;
9559;SDS011;4818;50.860;4.648;2022-12-15T08:01:59;66.95;;;31.85;;
9559;SDS011;4818;50.860;4.648;2022-12-15T08:04:26;69.13;;;30.45;;
9559;SDS011;4818;50.860;4.648;2022-12-15T08:06:52;65.00;;;28.92;;
9559;SDS011;4818;50.860;4.648;2022-12-15T08:09:18;63.92;;;27.20;;
9559;SDS011;4818;50.860;4.648;2022-12-15T08:11:45;71.75;;;29.27;;
9559;SDS011;4818;50.860;4.648;2022-12-15T08:14:11;68.35;;;30.25;;
9559;SDS011;4818;50.860;4.648;2022-12-15T08:16:37;67.28;;;30.45;;
9559;SDS011;4818;50.860;4.648;2022-12-15T08:19:03;67.22;;;29.80;;
9559;SDS011;4818;50.860;4.648;2022-12-15T08:21:30;63.75;;;28.50;;
9559;SDS011;4818;50.860;4.648;2022-12-15T08:23:57;69.90;;;32.28;;
9559;SDS011;4818;50.860;4.648;2022-12-15T08:26:24;75.20;;;31.00;;
9559;SDS011;4818;50.860;4.648;2022-12-15T08:28:51;67.63;;;28.60;;
9559;SDS011;4818;50.860;4.648;2022-12-15T08:31:18;64.13;;;28.88;;
9559;SDS011;4818;50.860;4.648;2022-12-15T08:33:45;75.43;;;30.65;;
9559;SDS011;4818;50.860;4.648;2022-12-15T08:36:12;65.25;;;28.23;;
9559;SDS011;4818;50.860;4.648;2022-12-15T08:38:38;74.72;;;29.77;;
9559;SDS011;4818;50.860;4.648;2022-12-15T08:41:24;63.65;;;28.92;;
9559;SDS011;4818;50.860;4.648;2022-12-15T08:43:51;69.47;;;28.58;;
9559;SDS011;4818;50.860;4.648;2022-12-15T08:46:18;65.53;;;27.52;;
9559;SDS011;4818;50.860;4.648;2022-12-15T08:48:45;68.72;;;27.83;;
9559;SDS011;4818;50.860;4.648;2022-12-15T08:51:11;56.88;;;26.50;;
9559;SDS011;4818;50.860;4.648;2022-12-15T08:53:37;62.03;;;27.35;;
9559;SDS011;4818;50.860;4.648;2022-12-15T08:56:04;76.75;;;36.83;;
9559;SDS011;4818;50.860;4.648;2022-12-15T08:58:31;66.53;;;29.25;;
9559;SDS011;4818;50.860;4.648;2022-12-15T09:01:01;49.08;;;25.92;;
9559;SDS011;4818;50.860;4.648;2022-12-15T09:03:27;51.88;;;24.52;;
9559;SDS011;4818;50.860;4.648;2022-12-15T09:05:53;52.30;;;26.35;;
9559;SDS011;4818;50.860;4.648;2022-12-15T09:08:21;61.97;;;27.35;;
9559;SDS011;4818;50.860;4.648;2022-12-15T09:10:47;59.10;;;28.17;;
9559;SDS011;4818;50.860;4.648;2022-12-15T09:13:13;59.30;;;28.10;;
9559;SDS011;4818;50.860;4.648;2022-12-15T09:15:39;57.78;;;26.85;;
9559;SDS011;4818;50.860;4.648;2022-12-15T09:18:07;47.88;;;25.35;;
9559;SDS011;4818;50.860;4.648;2022-12-15T09:20:33;52.35;;;25.83;;
9559;SDS011;4818;50.860;4.648;2022-12-15T09:22:59;59.35;;;31.58;;
9559;SDS011;4818;50.860;4.648;2022-12-15T09:25:25;53.40;;;28.52;;
9559;SDS011;4818;50.860;4.648;2022-12-15T09:27:51;50.75;;;27.15;;
9559;SDS011;4818;50.860;4.648;2022-12-15T09:30:17;48.33;;;26.50;;
9559;SDS011;4818;50.860;4.648;2022-12-15T09:32:44;47.17;;;24.67;;
9559;SDS011;4818;50.860;4.648;2022-12-15T09:35:10;48.47;;;27.15;;
9559;SDS011;4818;50.860;4.648;2022-12-15T09:37:36;56.40;;;28.13;;
9559;SDS011;4818;50.860;4.648;2022-12-15T09:40:02;53.10;;;27.10;;
9559;SDS011;4818;50.860;4.648;2022-12-15T09:42:30;50.60;;;27.55;;
9559;SDS011;4818;50.860;4.648;2022-12-15T09:44:58;51.78;;;26.30;;
9559;SDS011;4818;50.860;4.648;2022-12-15T09:47:28;54.47;;;27.30;;
9559;SDS011;4818;50.860;4.648;2022-12-15T09:49:57;55.95;;;26.80;;
9559;SDS011;4818;50.860;4.648;2022-12-15T09:52:27;55.72;;;27.38;;
9559;SDS011;4818;50.860;4.648;2022-12-15T09:54:54;54.58;;;27.17;;
9559;SDS011;4818;50.860;4.648;2022-12-15T09:57:54;54.08;;;26.17;;
9559;SDS011;4818;50.860;4.648;2022-12-15T10:00:20;51.22;;;26.63;;
9559;SDS011;4818;50.860;4.648;2022-12-15T10:08:03;48.70;;;26.92;;
9559;SDS011;4818;50.860;4.648;2022-12-15T10:10:33;48.80;;;26.63;;
9559;SDS011;4818;50.860;4.648;2022-12-15T10:13:07;49.25;;;26.85;;
9559;SDS011;4818;50.860;4.648;2022-12-15T10:15:40;46.83;;;26.95;;
9559;SDS011;4818;50.860;4.648;2022-12-15T10:18:26;52.83;;;27.90;;
9559;SDS011;4818;50.860;4.648;2022-12-15T10:20:53;45.92;;;25.92;;
9559;SDS011;4818;50.860;4.648;2022-12-15T10:23:21;43.53;;;26.27;;
9559;SDS011;4818;50.860;4.648;2022-12-15T10:26:33;52.72;;;28.42;;
9559;SDS011;4818;50.860;4.648;2022-12-15T10:28:43;52.30;;;29.00;;
9559;SDS011;4818;50.860;4.648;2022-12-15T10:31:17;50.80;;;30.23;;
9559;SDS011;4818;50.860;4.648;2022-12-15T10:33:43;58.30;;;30.52;;
9559;SDS011;4818;50.860;4.648;2022-12-15T10:36:14;55.30;;;28.45;;
9559;SDS011;4818;50.860;4.648;2022-12-15T10:38:42;47.75;;;26.83;;
9559;SDS011;4818;50.860;4.648;2022-12-15T10:41:21;48.30;;;27.45;;
9559;SDS011;4818;50.860;4.648;2022-12-15T10:43:50;56.45;;;26.65;;
9559;SDS011;4818;50.860;4.648;2022-12-15T10:48:47;47.38;;;25.23;;
9559;SDS011;4818;50.860;4.648;2022-12-15T10:51:18;49.78;;;25.30;;
9559;SDS011;4818;50.860;4.648;2022-12-15T10:53:47;52.47;;;25.92;;
9559;SDS011;4818;50.860;4.648;2022-12-15T10:56:24;45.08;;;24.40;;
9559;SDS011;4818;50.860;4.648;2022-12-15T10:58:54;51.35;;;25.60;;
9559;SDS011;4818;50.860;4.648;2022-12-15T11:01:25;56.97;;;25.92;;
9559;SDS011;4818;50.860;4.648;2022-12-15T11:03:52;56.20;;;27.10;;
9559;SDS011;4818;50.860;4.648;2022-12-15T11:06:26;48.58;;;24.95;;
9559;SDS011;4818;50.860;4.648;2022-12-15T11:08:53;52.08;;;26.65;;
9559;SDS011;4818;50.860;4.648;2022-12-15T11:11:31;48.53;;;26.48;;
9559;SDS011;4818;50.860;4.648;2022-12-15T11:16:46;46.05;;;24.50;;
9559;SDS011;4818;50.860;4.648;2022-12-15T11:19:15;57.28;;;26.70;;
9559;SDS011;4818;50.860;4.648;2022-12-15T11:21:47;55.90;;;26.77;;
9559;SDS011;4818;50.860;4.648;2022-12-15T11:29:38;57.28;;;28.55;;
9559;SDS011;4818;50.860;4.648;2022-12-15T11:32:08;56.55;;;29.17;;
9559;SDS011;4818;50.860;4.648;2022-12-15T11:34:43;57.88;;;28.48;;
9559;SDS011;4818;50.860;4.648;2022-12-15T11:45:01;54.05;;;26.67;;
9559;SDS011;4818;50.860;4.648;2022-12-15T11:48:15;49.17;;;25.67;;
9559;SDS011;4818;50.860;4.648;2022-12-15T11:50:40;54.10;;;28.52;;
9559;SDS011;4818;50.860;4.648;2022-12-15T11:53:09;55.22;;;27.25;;
9559;SDS011;4818;50.860;4.648;2022-12-15T12:01:10;57.80;;;27.25;;
9559;SDS011;4818;50.860;4.648;2022-12-15T12:06:08;52.50;;;27.83;;
9559;SDS011;4818;50.860;4.648;2022-12-15T12:13:40;55.75;;;28.05;;
9559;SDS011;4818;50.860;4.648;2022-12-15T12:21:29;52.50;;;27.67;;
9559;SDS011;4818;50.860;4.648;2022-12-15T12:23:59;51.90;;;26.67;;
9559;SDS011;4818;50.860;4.648;2022-12-15T12:26:39;48.58;;;23.45;;
9559;SDS011;4818;50.860;4.648;2022-12-15T12:31:40;49.17;;;24.73;;
9559;SDS011;4818;50.860;4.648;2022-12-15T12:34:18;51.65;;;24.98;;
9559;SDS011;4818;50.860;4.648;2022-12-15T12:36:46;49.67;;;23.50;;
9559;SDS011;4818;50.860;4.648;2022-12-15T12:39:18;45.55;;;24.27;;
9559;SDS011;4818;50.860;4.648;2022-12-15T12:44:44;39.90;;;19.70;;
9559;SDS011;4818;50.860;4.648;2022-12-15T12:47:21;41.85;;;19.08;;
9559;SDS011;4818;50.860;4.648;2022-12-15T12:49:49;45.38;;;21.98;;
9559;SDS011;4818;50.860;4.648;2022-12-15T12:52:24;42.17;;;20.58;;
9559;SDS011;4818;50.860;4.648;2022-12-15T12:54:53;39.22;;;19.60;;
9559;SDS011;4818;50.860;4.648;2022-12-15T12:57:32;42.00;;;19.88;;
9559;SDS011;4818;50.860;4.648;2022-12-15T13:00:00;40.13;;;19.20;;
9559;SDS011;4818;50.860;4.648;2022-12-15T13:07:34;34.47;;;17.08;;
9559;SDS011;4818;50.860;4.648;2022-12-15T13:18:04;40.60;;;19.85;;
9559;SDS011;4818;50.860;4.648;2022-12-15T13:20:32;53.35;;;21.40;;
9559;SDS011;4818;50.860;4.648;2022-12-15T13:25:44;33.60;;;17.23;;
9559;SDS011;4818;50.860;4.648;2022-12-15T13:28:15;33.25;;;17.67;;
9559;SDS011;4818;50.860;4.648;2022-12-15T13:33:26;33.25;;;17.35;;
9559;SDS011;4818;50.860;4.648;2022-12-15T13:35:53;39.58;;;18.55;;
9559;SDS011;4818;50.860;4.648;2022-12-15T13:38:19;37.83;;;17.65;;
9559;SDS011;4818;50.860;4.648;2022-12-15T13:41:20;36.53;;;18.20;;
9559;SDS011;4818;50.860;4.648;2022-12-15T13:43:46;32.35;;;17.00;;
9559;SDS011;4818;50.860;4.648;2022-12-15T13:46:14;35.03;;;16.48;;
9559;SDS011;4818;50.860;4.648;2022-12-15T13:48:45;34.80;;;16.73;;
9559;SDS011;4818;50.860;4.648;2022-12-15T13:53:39;32.90;;;17.08;;
9559;SDS011;4818;50.860;4.648;2022-12-15T13:58:43;33.97;;;19.27;;
9559;SDS011;4818;50.860;4.648;2022-12-15T14:04:04;40.67;;;18.38;;
9559;SDS011;4818;50.860;4.648;2022-12-15T14:06:39;33.55;;;16.75;;
9559;SDS011;4818;50.860;4.648;2022-12-15T14:09:05;36.92;;;16.90;;
9559;SDS011;4818;50.860;4.648;2022-12-15T14:11:32;29.10;;;15.48;;
9559;SDS011;4818;50.860;4.648;2022-12-15T14:13:59;28.35;;;15.32;;
9559;SDS011;4818;50.860;4.648;2022-12-15T14:16:25;30.90;;;15.80;;
9559;SDS011;4818;50.860;4.648;2022-12-15T14:21:33;32.22;;;14.38;;
9559;SDS011;4818;50.860;4.648;2022-12-15T14:23:59;28.45;;;15.13;;
9559;SDS011;4818;50.860;4.648;2022-12-15T14:26:26;31.35;;;13.93;;
9559;SDS011;4818;50.860;4.648;2022-12-15T14:29:01;29.88;;;13.90;;
9559;SDS011;4818;50.860;4.648;2022-12-15T14:31:28;35.08;;;15.40;;
9559;SDS011;4818;50.860;4.648;2022-12-15T14:34:02;30.77;;;13.15;;
9559;SDS011;4818;50.860;4.648;2022-12-15T14:36:31;24.27;;;12.80;;
9559;SDS011;4818;50.860;4.648;2022-12-15T14:39:01;33.08;;;13.18;;
9559;SDS011;4818;50.860;4.648;2022-12-15T14:41:37;31.52;;;12.82;;
9559;SDS011;4818;50.860;4.648;2022-12-15T14:46:44;27.02;;;11.52;;
9559;SDS011;4818;50.860;4.648;2022-12-15T14:49:21;29.85;;;13.38;;
9559;SDS011;4818;50.860;4.648;2022-12-15T14:51:49;27.13;;;12.48;;
9559;SDS011;4818;50.860;4.648;2022-12-15T14:54:26;27.95;;;12.68;;
9559;SDS011;4818;50.860;4.648;2022-12-15T14:57:11;23.27;;;12.57;;
9559;SDS011;4818;50.860;4.648;2022-12-15T14:59:39;27.15;;;12.65;;
9559;SDS011;4818;50.860;4.648;2022-12-15T15:02:14;29.35;;;13.15;;
9559;SDS011;4818;50.860;4.648;2022-12-15T15:04:53;28.27;;;14.32;;
9559;SDS011;4818;50.860;4.648;2022-12-15T15:07:20;27.90;;;12.98;;
9559;SDS011;4818;50.860;4.648;2022-12-15T15:09:47;31.20;;;14.23;;
9559;SDS011;4818;50.860;4.648;2022-12-15T15:12:20;24.98;;;13.48;;
9559;SDS011;4818;50.860;4.648;2022-12-15T15:15:10;27.83;;;13.43;;
9559;SDS011;4818;50.860;4.648;2022-12-15T15:17:34;29.08;;;12.60;;
9559;SDS011;4818;50.860;4.648;2022-12-15T15:20:02;27.55;;;14.18;;
9559;SDS011;4818;50.860;4.648;2022-12-15T15:22:32;24.80;;;13.88;;
9559;SDS011;4818;50.860;4.648;2022-12-15T15:27:28;30.60;;;12.55;;
9559;SDS011;4818;50.860;4.648;2022-12-15T15:30:11;34.40;;;14.00;;
9559;SDS011;4818;50.860;4.648;2022-12-15T15:35:17;28.00;;;12.27;;
9559;SDS011;4818;50.860;4.648;2022-12-15T15:37:44;27.88;;;13.93;;
9559;SDS011;4818;50.860;4.648;2022-12-15T15:40:11;29.10;;;12.85;;
9559;SDS011;4818;50.860;4.648;2022-12-15T15:42:39;26.35;;;13.23;;
9559;SDS011;4818;50.860;4.648;2022-12-15T15:45:09;28.92;;;12.30;;
9559;SDS011;4818;50.860;4.648;2022-12-15T15:47:37;29.08;;;13.15;;
9559;SDS011;4818;50.860;4.648;2022-12-15T15:50:03;27.33;;;12.98;;
9559;SDS011;4818;50.860;4.648;2022-12-15T15:52:30;27.17;;;12.77;;
9559;SDS011;4818;50.860;4.648;2022-12-15T15:54:56;23.70;;;12.45;;
9559;SDS011;4818;50.860;4.648;2022-12-15T15:57:22;25.83;;;12.25;;
9559;SDS011;4818;50.860;4.648;2022-12-15T15:59:49;27.85;;;12.95;;
9559;SDS011;4818;50.860;4.648;2022-12-15T16:02:15;23.00;;;13.18;;
9559;SDS011;4818;50.860;4.648;2022-12-15T16:04:41;31.50;;;14.70;;
9559;SDS011;4818;50.860;4.648;2022-12-15T16:07:18;28.77;;;14.32;;
9559;SDS011;4818;50.860;4.648;2022-12-15T16:09:46;38.85;;;15.35;;
9559;SDS011;4818;50.860;4.648;2022-12-15T16:12:18;33.15;;;15.15;;
9559;SDS011;4818;50.860;4.648;2022-12-15T16:14:47;28.92;;;14.32;;
9559;SDS011;4818;50.860;4.648;2022-12-15T16:17:13;32.28;;;14.50;;
9559;SDS011;4818;50.860;4.648;2022-12-15T16:19:40;30.92;;;14.93;;
9559;SDS011;4818;50.860;4.648;2022-12-15T16:22:07;33.88;;;16.88;;
9559;SDS011;4818;50.860;4.648;2022-12-15T16:24:36;35.83;;;16.45;;
9559;SDS011;4818;50.860;4.648;2022-12-15T16:27:02;36.50;;;16.40;;
9559;SDS011;4818;50.860;4.648;2022-12-15T16:29:28;40.35;;;16.33;;
9559;SDS011;4818;50.860;4.648;2022-12-15T16:31:54;39.30;;;17.23;;
9559;SDS011;4818;50.860;4.648;2022-12-15T16:34:23;34.63;;;16.55;;
9559;SDS011;4818;50.860;4.648;2022-12-15T16:36:49;42.72;;;19.60;;
9559;SDS011;4818;50.860;4.648;2022-12-15T16:39:26;32.70;;;15.57;;
9559;SDS011;4818;50.860;4.648;2022-12-15T16:41:53;40.13;;;18.38;;
9559;SDS011;4818;50.860;4.648;2022-12-15T16:44:20;42.55;;;20.13;;
9559;SDS011;4818;50.860;4.648;2022-12-15T16:46:46;41.90;;;21.42;;
9559;SDS011;4818;50.860;4.648;2022-12-15T16:49:12;47.33;;;20.10;;
9559;SDS011;4818;50.860;4.648;2022-12-15T16:51:39;48.17;;;21.40;;
9559;SDS011;4818;50.860;4.648;2022-12-15T16:54:08;42.45;;;22.35;;